Time;durP1;ratioP1;P1;durP2;ratioP2;P2;SDS_P1;SDS_P2;PMS_P1;PMS_P2;Temp;Humidity;BMP_temperature;BMP_pressure;BME280_temperature;BME280_humidity;BME280_pressure;Samples;Min_cycle;Max_cycle;Signal;HPM_P1;HPM_P2
2024/03/11 00:00:17;;;;;;;;;;;6.90;99.90;;;6.32;100.00;96309.09;4936460;28;1910;-69
2024/03/11 00:02:45;;;;;;;;;;;6.90;99.90;;;6.27;100.00;96305.03;5013395;28;1352;-70
2024/03/11 00:05:13;;;;;;;;;;;6.80;99.90;;;6.18;100.00;96295.13;4941011;28;1301;-70
2024/03/11 00:07:41;;;;;;;;;;;6.90;99.90;;;6.23;100.00;96298.34;4939120;28;1247;-67
2024/03/11 00:10:12;;;;;;;;;;;6.90;99.90;;;6.27;100.00;96306.75;4939594;28;1191;-70
2024/03/11 00:12:49;;;;;;;;;;;6.90;99.90;;;6.17;100.00;96296.03;4939148;28;1240;-70
2024/03/11 00:15:20;;;;;;;;;;;6.80;99.90;;;6.23;100.00;96297.50;4954233;28;1287;-70
2024/03/11 00:17:50;;;;;;;;;;;6.90;99.90;;;6.21;100.00;96301.88;4950158;28;1652;-69
2024/03/11 00:20:20;;;;;;;;;;;6.80;99.90;;;6.13;100.00;96293.66;4935813;28;2003;-69
2024/03/11 00:22:48;;;;;;;;;;;6.80;99.90;;;6.10;100.00;96310.09;4965449;28;1416;-69
2024/03/11 00:25:15;;;;;;;;;;;6.80;99.90;;;6.11;100.00;96303.19;4957007;28;1566;-69
2024/03/11 00:27:42;;;;;;;;;;;6.80;99.90;;;6.07;100.00;96311.06;4956944;28;1541;-69
2024/03/11 00:30:10;;;;;;;;;;;6.80;99.90;;;6.02;100.00;96317.31;4947025;28;1632;-69
2024/03/11 00:32:43;;;;;;;;;;;6.70;99.90;;;6.01;100.00;96320.81;4949356;28;1395;-69
2024/03/11 00:35:10;;;;;;;;;;;6.80;99.90;;;5.97;100.00;96340.72;4941701;28;1409;-68
2024/03/11 00:37:37;;;;;;;;;;;6.70;99.90;;;5.94;100.00;96330.56;4958248;28;1267;-69
2024/03/11 00:40:08;;;;;;;;;;;6.60;99.90;;;5.96;100.00;96327.91;4950220;28;1989;-69
2024/03/11 00:42:38;;;;;;;;;;;6.60;99.90;;;5.87;100.00;96326.53;4954384;28;1392;-68
2024/03/11 00:45:12;;;;;;;;;;;6.60;99.90;;;5.93;100.00;96333.16;4954709;28;1521;-69
2024/03/11 00:47:40;;;;;;;;;;;6.50;99.90;;;5.76;100.00;96329.56;4949932;28;1299;-69
2024/03/11 00:50:10;;;;;;;;;;;6.50;99.90;;;5.71;100.00;96341.00;4956500;28;1393;-68
2024/03/11 00:52:37;;;;;;;;;;;6.40;99.90;;;5.71;100.00;96338.41;4958915;28;1485;-69
2024/03/11 00:55:06;;;;;;;;;;;6.50;99.90;;;5.61;100.00;96343.97;4967530;28;1326;-69
2024/03/11 00:57:35;;;;;;;;;;;6.40;99.90;;;5.63;100.00;96341.31;4962859;28;1442;-69
2024/03/11 01:00:08;;;;;;;;;;;6.50;99.90;;;5.67;100.00;96337.69;4948283;28;1915;-69
2024/03/11 01:02:35;;;;;;;;;;;6.40;99.90;;;5.68;100.00;96335.97;4948335;28;1383;-69
2024/03/11 01:05:03;;;;;;;;;;;6.40;99.90;;;5.70;100.00;96345.28;4937781;28;1581;-69
2024/03/11 01:07:32;;;;;;;;;;;6.40;99.90;;;5.68;100.00;96348.81;4956746;28;1619;-68
2024/03/11 01:10:13;;;;;;;;;;;6.40;99.90;;;5.69;100.00;96350.50;4953945;28;1545;-69
2024/03/11 01:12:41;;;;;;;;;;;6.40;99.90;;;5.70;100.00;96350.44;4976411;28;1381;-69
2024/03/11 01:15:09;;;;;;;;;;;6.40;99.90;;;5.80;100.00;96356.03;4954945;28;1434;-69
2024/03/11 01:17:37;;;;;;;;;;;6.50;99.90;;;5.76;100.00;96362.22;4947983;28;1325;-69
2024/03/11 01:20:06;;;;;;;;;;;6.50;99.90;;;5.81;100.00;96361.09;4950915;28;1911;-69
2024/03/11 01:22:34;;;;;;;;;;;6.50;99.90;;;5.88;100.00;96379.72;4949356;28;1322;-69
2024/03/11 01:25:01;;;;;;;;;;;6.40;99.90;;;5.92;100.00;96381.25;4963071;28;1394;-69
2024/03/11 01:27:27;;;;;;;;;;;6.50;99.90;;;5.89;100.00;96355.66;4952849;28;1513;-69
2024/03/11 01:29:54;;;;;;;;;;;6.60;99.90;;;5.86;100.00;96363.47;4940659;28;1303;-69
2024/03/11 01:32:21;;;;;;;;;;;6.60;99.90;;;5.86;100.00;96359.19;4954739;28;1402;-69
2024/03/11 01:34:49;;;;;;;;;;;6.60;99.90;;;5.82;100.00;96382.56;4945574;28;1362;-69
2024/03/11 01:37:16;;;;;;;;;;;6.60;99.90;;;5.89;100.00;96378.00;4943263;28;1457;-69
2024/03/11 01:39:43;;;;;;;;;;;6.60;99.90;;;5.93;100.00;96374.34;4951403;28;1887;-69
2024/03/11 01:42:16;;;;;;;;;;;6.60;99.90;;;5.97;100.00;96374.19;4949128;28;1371;-69
2024/03/11 01:44:45;;;;;;;;;;;6.60;99.90;;;5.81;100.00;96379.13;4942158;28;1218;-69
2024/03/11 01:47:13;;;;;;;;;;;6.60;99.90;;;5.86;100.00;96391.81;4945654;28;1173;-69
2024/03/11 01:49:41;;;;;;;;;;;6.70;99.90;;;5.95;100.00;96396.59;4941089;28;1118;-69
2024/03/11 01:52:10;;;;;;;;;;;6.60;99.90;;;5.97;100.00;96399.94;4938045;28;1467;-69
2024/03/11 01:54:40;;;;;;;;;;;6.60;99.90;;;6.02;100.00;96387.72;4945683;28;1072;-69
2024/03/11 01:57:10;;;;;;;;;;;6.70;99.90;;;6.04;100.00;96391.06;4941465;28;1018;-69
2024/03/11 01:59:37;;;;;;;;;;;6.60;99.90;;;5.95;100.00;96390.63;4940190;28;2052;-69
2024/03/11 02:02:08;;;;;;;;;;;6.70;99.90;;;6.01;100.00;96395.50;4944043;28;1386;-69
2024/03/11 02:04:35;;;;;;;;;;;6.80;99.90;;;6.01;100.00;96396.34;4939331;28;1165;-69
2024/03/11 02:07:03;;;;;;;;;;;6.70;99.90;;;6.01;100.00;96416.94;4937291;28;1139;-69
2024/03/11 02:09:30;;;;;;;;;;;6.70;99.90;;;5.96;100.00;96407.75;4945278;28;1174;-70
2024/03/11 02:11:59;;;;;;;;;;;6.80;99.90;;;5.97;100.00;96405.09;4940091;28;1303;-69
2024/03/11 02:14:26;;;;;;;;;;;6.80;99.90;;;5.99;100.00;96412.78;4949778;28;1131;-69
2024/03/11 02:16:53;;;;;;;;;;;6.70;99.90;;;5.95;100.00;96406.91;4938594;28;1244;-67
2024/03/11 02:19:20;;;;;;;;;;;6.80;99.90;;;6.03;100.00;96414.31;4938433;28;1115;-69
2024/03/11 02:21:47;;;;;;;;;;;6.70;99.90;;;5.96;100.00;96407.75;4939846;28;2019;-70
2024/03/11 02:24:17;;;;;;;;;;;6.80;99.90;;;5.98;100.00;96405.97;4939930;28;1166;-69
2024/03/11 02:26:45;;;;;;;;;;;6.80;99.90;;;5.96;100.00;96403.44;4941441;28;1041;-69
2024/03/11 02:29:16;;;;;;;;;;;6.80;99.90;;;5.98;100.00;96413.69;4937708;28;1252;-70
2024/03/11 02:31:44;;;;;;;;;;;6.80;99.90;;;5.99;100.00;96413.59;4936974;28;1304;-69
2024/03/11 02:34:11;;;;;;;;;;;6.80;99.90;;;6.09;100.00;96411.47;4941367;28;1066;-69
2024/03/11 02:36:46;;;;;;;;;;;6.80;99.90;;;6.11;100.00;96414.81;4948168;28;1109;-69
2024/03/11 02:39:16;;;;;;;;;;;6.80;99.90;;;6.08;100.00;96410.63;4939868;28;1058;-69
2024/03/11 02:41:44;;;;;;;;;;;6.80;99.90;;;6.10;100.00;96413.16;4941483;28;1989;-69
2024/03/11 02:44:14;;;;;;;;;;;6.80;99.90;;;6.11;100.00;96406.25;4940558;28;1051;-69
2024/03/11 02:46:42;;;;;;;;;;;6.80;99.90;;;6.07;100.00;96405.56;4938618;28;1151;-69
2024/03/11 02:49:10;;;;;;;;;;;6.80;99.90;;;6.17;100.00;96430.00;4940776;28;1172;-69
2024/03/11 02:51:38;;;;;;;;;;;6.80;99.90;;;6.13;100.00;96420.72;4939908;28;1241;-69
2024/03/11 02:54:06;;;;;;;;;;;6.90;99.90;;;6.14;100.00;96419.84;4945311;28;1082;-69
2024/03/11 02:56:32;;;;;;;;;;;6.80;99.90;;;6.10;100.00;96423.44;4952023;28;1110;-69
2024/03/11 02:59:00;;;;;;;;;;;6.80;99.90;;;6.21;100.00;96430.72;4934800;28;1169;-69
2024/03/11 03:01:27;;;;;;;;;;;6.90;99.90;;;6.12;100.00;96431.13;4939348;28;1989;-69
2024/03/11 03:03:54;;;;;;;;;;;6.90;99.90;;;6.12;100.00;96439.69;4948429;28;990;-69
2024/03/11 03:06:21;;;;;;;;;;;6.80;99.90;;;6.16;100.00;96438.66;4944245;28;1139;-69
2024/03/11 03:08:48;;;;;;;;;;;6.80;99.90;;;6.20;100.00;96439.34;4935664;28;1307;-69
2024/03/11 03:11:16;;;;;;;;;;;6.80;99.90;;;6.15;100.00;96443.88;4938098;28;1315;-69
2024/03/11 03:13:43;;;;;;;;;;;6.90;99.90;;;6.20;100.00;96440.19;4950951;28;1202;-69
2024/03/11 03:16:10;;;;;;;;;;;6.90;99.90;;;6.11;100.00;96437.16;4938199;28;1387;-69
2024/03/11 03:18:37;;;;;;;;;;;6.90;99.90;;;6.10;100.00;96433.75;4937095;28;1376;-69
2024/03/11 03:21:04;;;;;;;;;;;6.90;99.90;;;6.12;100.00;96436.28;4954353;28;1911;-69
2024/03/11 03:23:30;;;;;;;;;;;6.90;99.90;;;6.13;100.00;96449.06;4940525;28;1362;-69
2024/03/11 03:25:57;;;;;;;;;;;6.90;99.90;;;6.09;100.00;96447.56;4937627;28;1201;-69
2024/03/11 03:28:24;;;;;;;;;;;6.90;99.90;;;6.05;100.00;96436.53;4934397;28;1206;-69
2024/03/11 03:30:53;;;;;;;;;;;6.90;99.90;;;6.12;100.00;96449.97;4939043;28;1308;-69
2024/03/11 03:33:20;;;;;;;;;;;6.80;99.90;;;6.06;100.00;96433.03;4943696;28;1046;-69
2024/03/11 03:35:47;;;;;;;;;;;6.80;99.90;;;6.14;100.00;96443.03;4934581;28;1141;-69
2024/03/11 03:38:15;;;;;;;;;;;6.90;99.90;;;6.16;100.00;96438.66;4936157;28;1189;-69
2024/03/11 03:40:42;;;;;;;;;;;6.80;99.90;;;6.12;100.00;96434.53;4939452;28;1931;-69
2024/03/11 03:43:09;;;;;;;;;;;6.80;99.90;;;6.10;100.00;96444.06;4947870;28;1053;-69
2024/03/11 03:45:36;;;;;;;;;;;6.80;99.90;;;6.05;100.00;96441.69;4938250;28;1057;-69
2024/03/11 03:48:04;;;;;;;;;;;6.80;99.90;;;6.06;100.00;96445.91;4938158;28;1077;-69
2024/03/11 03:50:31;;;;;;;;;;;6.80;99.90;;;6.06;100.00;96439.94;4940615;28;1446;-70
2024/03/11 03:52:58;;;;;;;;;;;6.80;99.90;;;6.06;100.00;96445.91;4935768;28;1025;-69
2024/03/11 03:55:25;;;;;;;;;;;6.80;99.90;;;6.00;100.00;96435.91;4939552;28;1316;-69
2024/03/11 03:57:52;;;;;;;;;;;6.80;99.90;;;6.07;100.00;96457.09;4935989;28;1192;-69
2024/03/11 04:00:20;;;;;;;;;;;6.80;99.90;;;6.13;100.00;96446.50;4943158;28;1907;-69
2024/03/11 04:02:49;;;;;;;;;;;6.80;99.90;;;6.10;100.00;96451.78;4940306;28;1125;-69
2024/03/11 04:05:18;;;;;;;;;;;6.70;99.90;;;6.02;100.00;96441.81;4943170;28;1062;-69
2024/03/11 04:07:45;;;;;;;;;;;6.80;99.90;;;6.08;100.00;96446.69;4939067;28;1208;-69
2024/03/11 04:10:13;;;;;;;;;;;6.80;99.90;;;6.04;100.00;96452.03;4938319;28;1078;-68
2024/03/11 04:12:44;;;;;;;;;;;6.80;99.90;;;6.02;100.00;96452.13;4956033;28;1099;-69
2024/03/11 04:15:13;;;;;;;;;;;6.80;99.90;;;5.98;100.00;96458.31;4934228;28;1141;-69
2024/03/11 04:17:41;;;;;;;;;;;6.80;99.90;;;6.04;100.00;96454.63;4937123;28;1185;-69
2024/03/11 04:20:11;;;;;;;;;;;6.80;99.90;;;6.05;100.00;96461.47;4941184;28;1968;-69
2024/03/11 04:22:41;;;;;;;;;;;6.70;99.90;;;6.11;100.00;96463.75;4934593;28;1272;-69
2024/03/11 04:25:28;;;;;;;;;;;6.70;99.90;;;6.11;100.00;96458.59;4946414;28;1200;-69
2024/03/11 04:27:56;;;;;;;;;;;6.70;99.90;;;6.09;100.00;96465.59;4933748;28;1157;-69
2024/03/11 04:30:37;;;;;;;;;;;6.70;99.90;;;6.04;100.00;96452.03;4940356;28;1311;-69
2024/03/11 04:33:06;;;;;;;;;;;6.70;99.90;;;6.03;100.00;96458.94;4937003;28;1169;-69
2024/03/11 04:35:35;;;;;;;;;;;6.70;99.90;;;6.02;100.00;96453.84;4944124;28;1324;-69
2024/03/11 04:38:10;;;;;;;;;;;6.70;99.90;;;5.98;100.00;96463.47;4933468;28;1192;-69
2024/03/11 04:40:39;;;;;;;;;;;6.70;99.90;;;5.95;100.00;96460.16;4940169;28;2035;-69
2024/03/11 04:43:06;;;;;;;;;;;6.70;99.90;;;5.96;100.00;96457.53;4940032;28;1289;-69
2024/03/11 04:45:35;;;;;;;;;;;6.70;99.90;;;5.96;100.00;96464.41;4933966;28;1107;-69
2024/03/11 04:48:02;;;;;;;;;;;6.70;99.90;;;5.96;100.00;96446.41;4938471;28;1434;-69
2024/03/11 04:50:30;;;;;;;;;;;6.70;99.90;;;5.97;100.00;96460.94;4939702;28;1279;-70
2024/03/11 04:53:00;;;;;;;;;;;6.70;99.90;;;5.97;100.00;96464.34;4939161;28;1340;-69
2024/03/11 04:55:27;;;;;;;;;;;6.70;99.90;;;5.92;100.00;96468.81;4939255;28;1182;-69
2024/03/11 04:57:55;;;;;;;;;;;6.70;99.90;;;5.96;100.00;96469.56;4946202;28;1500;-69
2024/03/11 05:00:26;;;;;;;;;;;6.70;99.90;;;5.89;100.00;96474.09;4940963;28;1899;-69
2024/03/11 05:02:55;;;;;;;;;;;6.70;99.90;;;5.88;100.00;96472.41;4942057;28;1209;-69
2024/03/11 05:05:23;;;;;;;;;;;6.70;99.90;;;5.98;100.00;96472.94;4937501;28;1085;-69
2024/03/11 05:07:51;;;;;;;;;;;6.70;99.90;;;5.96;100.00;96475.56;4936711;28;1326;-69
2024/03/11 05:10:18;;;;;;;;;;;6.70;99.90;;;5.92;100.00;96476.53;4968407;28;1408;-70
2024/03/11 05:12:47;;;;;;;;;;;6.70;99.90;;;5.92;100.00;96473.16;4937908;28;1031;-69
2024/03/11 05:15:16;;;;;;;;;;;6.70;99.90;;;5.89;100.00;96476.69;4943982;28;1375;-69
2024/03/11 05:17:44;;;;;;;;;;;6.70;99.90;;;5.92;100.00;96486.84;4940097;28;1280;-69
2024/03/11 05:20:14;;;;;;;;;;;6.70;99.90;;;5.87;100.00;96483.63;4939040;28;1153;-69
2024/03/11 05:22:42;;;;;;;;;;;6.60;99.90;;;5.88;100.00;96482.72;4945046;28;1892;-69
2024/03/11 05:25:12;;;;;;;;;;;6.60;99.90;;;5.94;100.00;96489.38;4969245;28;1049;-69
2024/03/11 05:27:39;;;;;;;;;;;6.70;99.90;;;5.97;100.00;96499.56;4938961;28;1052;-69
2024/03/11 05:30:07;;;;;;;;;;;6.70;99.90;;;5.88;100.00;96493.03;4924156;28;1530;-69
2024/03/11 05:32:34;;;;;;;;;;;6.70;99.90;;;5.94;100.00;96494.53;4938804;28;1498;-69
2024/03/11 05:35:02;;;;;;;;;;;6.70;99.90;;;5.96;100.00;96503.06;4940365;28;1141;-69
2024/03/11 05:37:28;;;;;;;;;;;6.70;99.90;;;5.96;100.00;96505.63;4941256;28;1134;-69
2024/03/11 05:39:55;;;;;;;;;;;6.60;99.90;;;6.04;100.00;96506.13;4942179;28;1278;-69
2024/03/11 05:42:22;;;;;;;;;;;6.60;99.90;;;5.96;100.00;96514.19;4940931;28;1986;-70
2024/03/11 05:44:49;;;;;;;;;;;6.60;99.90;;;5.88;100.00;96493.03;4942033;28;1185;-69
2024/03/11 05:47:16;;;;;;;;;;;6.60;99.90;;;5.86;100.00;96505.97;4946994;28;1241;-69
2024/03/11 05:49:43;;;;;;;;;;;6.70;99.90;;;5.89;100.00;96506.75;4940450;28;1188;-69
2024/03/11 05:52:10;;;;;;;;;;;6.70;99.90;;;5.86;100.00;96511.13;4938813;28;1335;-69
2024/03/11 05:54:50;;;;;;;;;;;6.60;99.90;;;5.87;100.00;96517.13;4938185;28;1057;-70
2024/03/11 05:57:25;;;;;;;;;;;6.60;99.90;;;5.82;100.00;96517.31;4940888;28;1157;-69
2024/03/11 05:59:53;;;;;;;;;;;6.60;99.90;;;5.92;100.00;96522.91;4940353;28;1141;-69
2024/03/11 06:02:20;;;;;;;;;;;6.60;99.90;;;5.95;100.00;96525.38;4939652;28;1991;-69
2024/03/11 06:04:47;;;;;;;;;;;6.60;99.90;;;5.89;100.00;96519.63;4951007;28;1299;-69
2024/03/11 06:07:25;;;;;;;;;;;6.60;99.90;;;5.88;100.00;96523.94;4939557;28;1080;-69
2024/03/11 06:09:52;;;;;;;;;;;6.60;99.90;;;5.89;100.00;96520.47;4940697;28;1057;-69
2024/03/11 06:12:20;;;;;;;;;;;6.60;99.90;;;5.92;100.00;96516.94;4975377;28;1335;-70
2024/03/11 06:14:48;;;;;;;;;;;6.60;99.90;;;5.92;100.00;96534.94;4949185;28;1244;-69
2024/03/11 06:17:15;;;;;;;;;;;6.50;99.90;;;5.82;100.00;96525.03;4953430;28;1139;-69
2024/03/11 06:19:44;;;;;;;;;;;6.60;99.90;;;5.87;100.00;96527.41;4940403;28;1318;-70
2024/03/11 06:22:15;;;;;;;;;;;6.60;99.90;;;5.87;100.00;96527.41;4940008;28;1891;-69
2024/03/11 06:24:43;;;;;;;;;;;6.60;99.90;;;5.86;100.00;96536.03;4944850;28;1209;-69
2024/03/11 06:27:11;;;;;;;;;;;6.50;99.90;;;5.89;100.00;96535.91;4958721;28;1217;-69
2024/03/11 06:29:38;;;;;;;;;;;6.60;99.90;;;5.81;100.00;96543.94;4941165;28;1096;-69
2024/03/11 06:32:07;;;;;;;;;;;6.50;99.90;;;5.79;100.00;96545.75;4938457;28;1320;-69
2024/03/11 06:34:34;;;;;;;;;;;6.60;99.90;;;5.84;100.00;96538.69;4954881;28;1017;-71
2024/03/11 06:37:02;;;;;;;;;;;6.60;99.90;;;5.80;100.00;96544.03;4938300;28;1069;-70
2024/03/11 06:39:31;;;;;;;;;;;6.60;99.90;;;5.72;100.00;96561.50;4939704;28;1025;-70
2024/03/11 06:42:00;;;;;;;;;;;6.60;99.90;;;5.74;100.00;96565.69;4937644;28;1978;-69
2024/03/11 06:44:28;;;;;;;;;;;6.60;99.90;;;5.80;100.00;96568.03;4935397;28;1040;-69
2024/03/11 06:47:08;;;;;;;;;;;6.60;99.90;;;5.83;100.00;96564.47;4940135;28;1197;-69
2024/03/11 06:49:36;;;;;;;;;;;6.60;99.90;;;5.82;100.00;96566.22;4960336;28;982;-69
2024/03/11 06:52:06;;;;;;;;;;;6.50;99.90;;;5.84;100.00;96574.75;4937982;28;1528;-69
2024/03/11 06:54:35;;;;;;;;;;;6.50;99.90;;;5.76;100.00;96570.78;4970938;28;1559;-69
2024/03/11 06:57:03;;;;;;;;;;;6.50;99.90;;;5.77;100.00;96588.75;4940041;28;1165;-69
2024/03/11 06:59:30;;;;;;;;;;;6.50;99.90;;;5.59;100.00;96568.88;4940178;28;1102;-70
2024/03/11 07:01:57;;;;;;;;;;;6.50;99.90;;;5.74;100.00;96575.16;4937074;28;1903;-69
2024/03/11 07:04:24;;;;;;;;;;;6.50;99.90;;;5.76;100.00;96584.50;4938976;28;996;-69
2024/03/11 07:06:51;;;;;;;;;;;6.40;99.90;;;5.83;100.00;96570.47;4935444;28;1403;-69
2024/03/11 07:09:18;;;;;;;;;;;6.50;99.90;;;5.92;100.00;96589.03;4944822;28;1046;-69
2024/03/11 07:11:46;;;;;;;;;;;6.50;99.90;;;5.83;100.00;96591.06;4938540;28;1452;-69
2024/03/11 07:14:13;;;;;;;;;;;6.40;99.90;;;5.88;100.00;96585.72;4943868;28;1255;-69
2024/03/11 07:16:43;;;;;;;;;;;6.50;99.90;;;5.87;100.00;96592.63;4939791;28;1264;-70
2024/03/11 07:19:10;;;;;;;;;;;6.40;99.90;;;5.80;100.00;96586.06;4935104;28;1045;-69
2024/03/11 07:21:38;;;;;;;;;;;6.50;99.90;;;5.82;100.00;96581.69;4937656;28;1992;-69
2024/03/11 07:24:06;;;;;;;;;;;6.60;99.90;;;5.80;100.00;96614.38;4925158;28;1048;-69
2024/03/11 07:26:33;;;;;;;;;;;6.50;99.90;;;5.91;100.00;96600.22;4935487;28;1323;-70
2024/03/11 07:29:00;;;;;;;;;;;6.50;99.90;;;6.05;100.00;96598.00;4937973;28;1397;-69
2024/03/11 07:31:27;;;;;;;;;;;6.50;99.90;;;5.95;100.00;96599.25;4939310;28;1411;-69
2024/03/11 07:33:54;;;;;;;;;;;6.50;99.90;;;5.97;100.00;96598.28;4936882;28;1185;-69
2024/03/11 07:36:21;;;;;;;;;;;6.60;99.90;;;5.88;100.00;96596.03;4939618;28;1323;-69
2024/03/11 07:38:48;;;;;;;;;;;6.60;99.90;;;5.95;100.00;96607.81;4937047;28;1138;-69
2024/03/11 07:41:16;;;;;;;;;;;6.50;99.90;;;5.94;100.00;96613.00;4942512;28;2006;-69
2024/03/11 07:43:43;;;;;;;;;;;6.60;99.90;;;6.04;100.00;96617.78;4947240;28;1457;-69
2024/03/11 07:46:11;;;;;;;;;;;6.60;99.90;;;5.98;100.00;96617.16;4954846;28;1197;-69
2024/03/11 07:48:41;;;;;;;;;;;6.60;99.90;;;5.92;100.00;96613.06;4946293;28;1052;-69
2024/03/11 07:51:08;;;;;;;;;;;6.70;99.90;;;6.14;100.00;96625.13;4939593;28;1463;-69
2024/03/11 07:53:36;;;;;;;;;;;6.70;99.90;;;6.01;100.00;96614.47;4941857;28;1062;-69
2024/03/11 07:56:04;;;;;;;;;;;6.70;99.90;;;6.16;100.00;96626.75;4935397;28;1165;-69
2024/03/11 07:58:36;;;;;;;;;;;6.70;99.90;;;6.02;100.00;96616.13;4936250;28;1078;-69
2024/03/11 08:01:03;;;;;;;;;;;6.60;99.90;;;6.05;100.00;96647.78;4936149;28;1323;-69
2024/03/11 08:03:30;;;;;;;;;;;6.70;99.90;;;6.04;100.00;96650.41;4938904;28;1914;-69
2024/03/11 08:05:58;;;;;;;;;;;6.70;99.90;;;6.16;100.00;96670.53;4940670;28;1181;-69
2024/03/11 08:08:26;;;;;;;;;;;6.60;99.90;;;6.07;100.00;96655.44;4938104;28;1118;-69
2024/03/11 08:10:53;;;;;;;;;;;6.60;99.90;;;5.93;100.00;96653.38;4935020;28;1244;-69
2024/03/11 08:13:20;;;;;;;;;;;6.70;99.90;;;6.15;100.00;96653.38;4941628;28;1288;-69
2024/03/11 08:15:48;;;;;;;;;;;6.70;99.90;;;6.22;100.00;96666.88;4936213;28;1358;-69
2024/03/11 08:18:16;;;;;;;;;;;6.80;99.90;;;6.68;100.00;96652.97;4943980;28;1136;-70
2024/03/11 08:20:43;;;;;;;;;;;7.10;99.90;;;7.22;100.00;96660.13;4938255;28;1260;-69
2024/03/11 08:23:10;;;;;;;;;;;7.50;99.90;;;7.65;100.00;96674.53;4940035;28;1911;-69
2024/03/11 08:25:37;;;;;;;;;;;7.80;99.90;;;7.31;100.00;96663.13;4954823;28;1275;-69
2024/03/11 08:28:04;;;;;;;;;;;7.80;99.90;;;6.82;100.00;96648.94;4945095;28;1082;-69
2024/03/11 08:30:31;;;;;;;;;;;7.70;99.90;;;6.68;100.00;96650.38;4940548;28;1354;-69
2024/03/11 08:32:59;;;;;;;;;;;7.50;99.90;;;6.81;100.00;96650.69;4939707;28;1148;-70
2024/03/11 08:35:27;;;;;;;;;;;7.50;99.90;;;6.89;100.00;96663.28;4942922;28;1279;-70
2024/03/11 08:37:54;;;;;;;;;;;7.50;99.90;;;6.92;100.00;96660.56;4936790;28;1197;-69
2024/03/11 08:40:22;;;;;;;;;;;7.40;99.90;;;6.90;100.00;96655.44;4936062;28;1272;-69
2024/03/11 08:42:50;;;;;;;;;;;7.40;99.90;;;7.20;100.00;96662.78;4939318;28;1919;-69
2024/03/11 08:45:18;;;;;;;;;;;7.50;99.90;;;7.29;100.00;96656.38;4940759;28;1058;-69
2024/03/11 08:47:46;;;;;;;;;;;7.50;99.90;;;7.15;100.00;96651.81;4937163;28;1208;-69
2024/03/11 08:50:16;;;;;;;;;;;7.60;99.90;;;7.33;100.00;96656.16;4937727;28;1277;-69
2024/03/11 08:52:47;;;;;;;;;;;7.80;99.90;;;7.38;100.00;96649.97;4942958;28;1146;-69
2024/03/11 08:55:15;;;;;;;;;;;7.70;99.90;;;7.35;100.00;96650.13;4940795;28;1375;-69
2024/03/11 08:57:45;;;;;;;;;;;7.90;99.90;;;7.20;100.00;96636.13;4941943;28;1470;-69
2024/03/11 09:00:15;;;;;;;;;;;7.80;99.90;;;7.30;100.00;96648.56;4942392;28;1189;-69
2024/03/11 09:02:44;;;;;;;;;;;7.90;99.90;;;7.54;100.00;96649.19;4940962;28;1965;-70
2024/03/11 09:05:12;;;;;;;;;;;8.00;99.90;;;7.75;100.00;96646.53;4943007;28;1169;-69
2024/03/11 09:07:40;;;;;;;;;;;8.10;99.90;;;8.66;100.00;96647.41;4948717;28;1216;-70
2024/03/11 09:10:09;;;;;;;;;;;8.30;99.90;;;8.81;100.00;96635.47;4960065;28;1514;-69
2024/03/11 09:12:40;;;;;;;;;;;8.60;99.90;;;8.29;100.00;96631.91;4943150;28;1212;-70
2024/03/11 09:15:18;;;;;;;;;;;8.90;99.90;;;8.99;100.00;96619.00;4938213;28;1126;-69
2024/03/11 09:17:50;;;;;;;;;;;9.10;99.90;;;9.19;100.00;96594.63;4940249;28;1289;-69
2024/03/11 09:20:21;;;;;;;;;;;9.30;99.90;;;9.62;100.00;96600.97;4943922;28;1359;-69
2024/03/11 09:22:53;;;;;;;;;;;9.70;99.90;;;10.30;100.00;96549.72;4944666;28;1950;-69
2024/03/11 09:25:24;;;;;;;;;;;10.50;99.90;;;9.97;100.00;96555.88;4947050;28;1214;-70
2024/03/11 09:28:00;;;;;;;;;;;10.30;99.90;;;9.55;100.00;96550.38;4940391;28;1193;-70
2024/03/11 09:30:41;;;;;;;;;;;10.00;99.90;;;10.08;100.00;96552.66;4939372;28;1438;-69
2024/03/11 09:33:11;;;;;;;;;;;10.30;99.90;;;10.38;100.00;96548.34;4942365;28;1394;-70
2024/03/11 09:35:38;;;;;;;;;;;10.80;99.90;;;10.00;100.00;96532.38;4938935;28;1103;-70
2024/03/11 09:38:05;;;;;;;;;;;11.20;99.90;;;10.30;100.00;96545.34;4939583;28;1293;-70
2024/03/11 09:40:33;;;;;;;;;;;11.10;99.90;;;10.01;100.00;96542.66;4936916;28;1233;-69
2024/03/11 09:43:01;;;;;;;;;;;11.50;99.90;;;9.55;100.00;96552.97;4939568;28;1907;-69
2024/03/11 09:45:29;;;;;;;;;;;10.70;99.90;;;9.70;100.00;96553.91;4939745;28;1372;-70
2024/03/11 09:47:57;;;;;;;;;;;11.20;99.90;;;9.37;100.00;96554.84;4944323;28;1197;-70
2024/03/11 09:50:30;;;;;;;;;;;10.80;99.90;;;9.10;100.00;96570.09;4947011;28;1416;-69
2024/03/11 09:53:02;;;;;;;;;;;10.50;99.90;;;9.51;100.00;96572.22;4943819;28;1627;-70
2024/03/11 09:55:30;;;;;;;;;;;10.20;99.90;;;9.33;100.00;96571.47;4940071;28;1258;-70
2024/03/11 09:58:01;;;;;;;;;;;9.60;99.90;;;8.68;100.00;96576.56;4949081;28;1528;-69
2024/03/11 10:00:29;;;;;;;;;;;9.40;99.90;;;9.15;100.00;96578.44;4939035;28;1400;-69
2024/03/11 10:03:00;;;;;;;;;;;9.50;99.90;;;8.68;100.00;96592.09;4943054;28;1943;-70
2024/03/11 10:05:30;;;;;;;;;;;9.30;99.90;;;8.73;100.00;96591.84;4950043;28;1191;-69
2024/03/11 10:07:59;;;;;;;;;;;9.40;99.90;;;8.59;100.00;96589.97;4940117;28;1136;-69
2024/03/11 10:10:28;;;;;;;;;;;9.30;99.90;;;8.65;100.00;96594.00;4943518;28;1328;-69
2024/03/11 10:12:58;;;;;;;;;;;9.50;99.90;;;8.48;100.00;96598.25;4940652;28;1197;-70
2024/03/11 10:15:29;;;;;;;;;;;9.20;99.90;;;8.44;100.00;96598.47;4945495;28;1230;-69
2024/03/11 10:18:08;;;;;;;;;;;9.20;99.90;;;8.31;100.00;96606.81;4938367;28;1224;-69
2024/03/11 10:20:35;;;;;;;;;;;9.10;99.90;;;8.58;100.00;96611.59;4969965;28;1374;-69
2024/03/11 10:23:09;;;;;;;;;;;9.00;99.90;;;8.42;100.00;96621.84;4978544;28;1974;-69
2024/03/11 10:25:40;;;;;;;;;;;9.00;99.90;;;8.39;100.00;96611.59;4946103;28;1091;-69
2024/03/11 10:28:07;;;;;;;;;;;9.10;99.90;;;8.69;100.00;96624.81;4942767;28;1257;-69
2024/03/11 10:30:34;;;;;;;;;;;9.10;99.90;;;8.70;100.00;96617.88;4945200;28;1426;-70
2024/03/11 10:33:02;;;;;;;;;;;9.20;99.90;;;8.46;100.00;96610.44;4945915;28;1394;-69
2024/03/11 10:35:39;;;;;;;;;;;9.30;99.90;;;8.23;100.00;96610.69;4947786;28;1568;-69
2024/03/11 10:38:13;;;;;;;;;;;9.10;99.90;;;8.32;100.00;96608.50;4949197;28;1544;-70
2024/03/11 10:40:44;;;;;;;;;;;9.10;99.90;;;8.58;100.00;96621.94;4946344;28;1394;-69
2024/03/11 10:43:19;;;;;;;;;;;9.30;99.90;;;9.12;100.00;96617.44;4937817;28;1935;-69
2024/03/11 10:45:47;;;;;;;;;;;9.50;99.90;;;8.99;100.00;96627.59;4948738;28;1383;-70
2024/03/11 10:48:15;;;;;;;;;;;9.50;99.90;;;9.08;100.00;96609.94;4943583;28;1375;-69
2024/03/11 10:50:42;;;;;;;;;;;9.70;99.90;;;9.48;100.00;96605.22;4947901;28;1458;-70
2024/03/11 10:53:18;;;;;;;;;;;9.90;99.90;;;9.87;100.00;96607.38;4970258;28;1381;-69
2024/03/11 10:55:53;;;;;;;;;;;10.20;99.90;;;9.46;100.00;96597.50;4944290;28;1467;-69
2024/03/11 10:58:25;;;;;;;;;;;10.20;99.90;;;9.92;100.00;96592.44;4938132;28;1209;-69
2024/03/11 11:00:54;;;;;;;;;;;10.30;99.90;;;9.80;100.00;96603.47;4938194;28;1400;-69
2024/03/11 11:03:26;;;;;;;;;;;10.20;99.90;;;9.59;100.00;96593.34;4947605;28;1912;-70
2024/03/11 11:06:01;;;;;;;;;;;10.40;99.90;;;9.36;100.00;96570.47;4947031;28;1384;-69
2024/03/11 11:08:30;;;;;;;;;;;10.30;99.90;;;9.26;100.00;96603.78;4943618;28;1006;-69
2024/03/11 11:10:58;;;;;;;;;;;10.10;99.90;;;9.58;100.00;96602.06;4939405;28;1449;-70
2024/03/11 11:13:26;;;;;;;;;;;10.00;99.90;;;9.60;100.00;96601.94;4945248;28;1216;-69
2024/03/11 11:15:56;;;;;;;;;;;10.10;99.90;;;9.58;100.00;96590.88;4939886;28;1157;-69
2024/03/11 11:18:26;;;;;;;;;;;10.20;99.90;;;9.69;100.00;96585.06;4937341;28;1121;-70
2024/03/11 11:20:53;;;;;;;;;;;10.10;99.90;;;9.85;100.00;96580.72;4921154;28;1391;-70
2024/03/11 11:23:25;;;;;;;;;;;10.30;99.90;;;10.19;100.00;96586.59;4972420;28;1899;-69
2024/03/11 11:25:55;;;;;;;;;;;10.50;99.90;;;10.25;100.00;96594.88;4935341;28;1248;-69
2024/03/11 11:28:28;;;;;;;;;;;10.60;99.90;;;10.60;100.00;96573.84;4937909;28;1223;-69
2024/03/11 11:31:26;;;;;;;;;;;10.80;99.90;;;10.39;100.00;96582.91;4969704;28;1291;-69
2024/03/11 11:34:01;;;;;;;;;;;10.60;99.90;;;10.39;100.00;96593.28;4934613;28;1372;-70
2024/03/11 11:36:39;;;;;;;;;;;10.50;99.90;;;10.76;100.00;96583.34;4938939;28;1058;-70
2024/03/11 11:39:27;;;;;;;;;;;10.80;99.90;;;10.96;100.00;96566.59;4939938;28;1098;-69